Time;durP1;ratioP1;P1;durP2;ratioP2;P2;SDS_P1;SDS_P2;PMS_P1;PMS_P2;Temp;Humidity;BMP_temperature;BMP_pressure;BME280_temperature;BME280_humidity;BME280_pressure;Samples;Min_cycle;Max_cycle;Signal;HPM_P1;HPM_P2
2023/12/24 00:00:37;;;;;;;12.88;6.57;;;1.00;99.90;;;;;;5063697;28;20032;-47
2023/12/24 00:03:06;;;;;;;19.88;8.30;;;1.00;99.90;;;;;;5063846;28;20024;-44
2023/12/24 00:05:32;;;;;;;12.52;5.80;;;1.00;99.90;;;;;;5064820;28;20349;-46
2023/12/24 00:07:57;;;;;;;14.40;6.18;;;1.00;99.90;;;;;;5064750;28;20028;-51
2023/12/24 00:10:23;;;;;;;14.43;7.45;;;1.00;99.90;;;;;;5064872;28;20068;-47
2023/12/24 00:12:48;;;;;;;18.23;7.13;;;1.00;99.90;;;;;;5064691;28;20047;-47
2023/12/24 00:15:17;;;;;;;14.35;6.38;;;1.00;99.90;;;;;;5064438;28;20399;-49
2023/12/24 00:17:42;;;;;;;15.40;6.93;;;1.10;99.90;;;;;;5065213;28;20031;-50
2023/12/24 00:20:08;;;;;;;15.02;7.05;;;1.10;99.90;;;;;;5064735;28;20028;-47
2023/12/24 00:22:35;;;;;;;19.38;8.75;;;1.10;99.90;;;;;;5065155;28;20111;-52
2023/12/24 00:25:01;;;;;;;16.30;8.27;;;1.00;99.90;;;;;;5063045;28;20647;-48
2023/12/24 00:27:27;;;;;;;16.45;8.48;;;1.00;99.90;;;;;;5064584;28;20110;-52
2023/12/24 00:29:52;;;;;;;12.95;7.53;;;1.00;99.90;;;;;;5064223;28;20625;-48
2023/12/24 00:32:19;;;;;;;13.45;6.90;;;1.00;99.90;;;;;;5066675;28;20024;-49
2023/12/24 00:34:45;;;;;;;12.68;7.13;;;1.00;99.90;;;;;;5073819;28;20374;-50
2023/12/24 00:37:11;;;;;;;13.80;7.43;;;1.00;99.90;;;;;;5077435;28;20030;-51
2023/12/24 00:39:36;;;;;;;14.18;7.43;;;0.90;99.90;;;;;;5077684;28;20459;-48
2023/12/24 00:42:02;;;;;;;11.18;6.60;;;0.90;99.90;;;;;;5072593;28;20040;-53
2023/12/24 00:44:28;;;;;;;12.38;6.25;;;0.90;99.90;;;;;;5064433;28;20379;-49
2023/12/24 00:46:53;;;;;;;10.35;5.72;;;0.90;99.90;;;;;;5063644;28;20606;-50
2023/12/24 00:49:19;;;;;;;14.48;6.10;;;0.90;99.90;;;;;;5064250;28;20034;-49
2023/12/24 00:51:44;;;;;;;16.70;7.40;;;0.80;99.90;;;;;;5064221;28;20085;-45
2023/12/24 00:54:10;;;;;;;12.45;6.82;;;0.80;99.90;;;;;;5063582;28;20020;-46
2023/12/24 00:56:36;;;;;;;10.70;6.32;;;0.80;99.90;;;;;;5063944;28;20075;-52
2023/12/24 00:59:02;;;;;;;15.50;6.32;;;0.70;99.90;;;;;;5061141;28;20150;-47
2023/12/24 01:01:27;;;;;;;16.35;7.63;;;0.70;99.90;;;;;;5063878;28;20070;-49
2023/12/24 01:03:53;;;;;;;13.48;7.15;;;0.70;99.90;;;;;;5062892;28;20098;-52
2023/12/24 01:06:18;;;;;;;12.40;6.07;;;0.70;99.90;;;;;;5063823;28;20035;-50
2023/12/24 01:08:44;;;;;;;10.80;4.63;;;0.70;99.90;;;;;;5064243;28;20024;-51
2023/12/24 01:11:12;;;;;;;10.63;5.90;;;0.70;99.90;;;;;;5063811;28;20032;-49
2023/12/24 01:13:38;;;;;;;10.43;4.68;;;0.70;99.90;;;;;;5061647;28;20055;-51
2023/12/24 01:16:04;;;;;;;12.82;5.78;;;0.70;99.90;;;;;;5057028;28;20052;-47
2023/12/24 01:18:30;;;;;;;12.77;5.50;;;0.70;99.90;;;;;;5060251;28;20029;-48
2023/12/24 01:20:56;;;;;;;7.68;3.25;;;0.60;99.90;;;;;;5063622;28;20098;-50
2023/12/24 01:23:22;;;;;;;8.38;3.40;;;0.60;99.90;;;;;;5065841;28;20041;-47
2023/12/24 01:25:48;;;;;;;5.65;2.40;;;0.50;99.90;;;;;;5074174;28;20032;-47
2023/12/24 01:28:14;;;;;;;7.72;2.50;;;0.50;99.90;;;;;;5068471;28;20046;-51
2023/12/24 01:30:40;;;;;;;6.43;2.97;;;0.50;99.90;;;;;;5067827;28;20043;-50
2023/12/24 01:33:06;;;;;;;9.35;3.10;;;0.60;99.90;;;;;;5067531;28;20032;-50
2023/12/24 21:00:05;;;;;;;14.55;6.50;;;7.00;99.90;;;;;;5100897;27;20117;-52
2023/12/24 21:02:34;;;;;;;14.53;5.97;;;6.90;99.90;;;;;;5101251;28;20054;-48
2023/12/24 21:05:02;;;;;;;16.65;7.32;;;6.90;99.90;;;;;;5102569;28;20036;-49
2023/12/24 21:07:27;;;;;;;17.20;7.47;;;6.90;99.90;;;;;;5099059;28;20632;-49
2023/12/24 21:09:55;;;;;;;13.73;6.85;;;6.90;99.90;;;;;;5101054;28;20072;-49
2023/12/24 21:12:22;;;;;;;;;;;6.90;99.90;;;;;;5102133;28;20139;-48
2023/12/24 21:14:48;;;;;;;18.58;8.60;;;7.00;99.90;;;;;;5101241;28;19916;-52
2023/12/24 21:17:13;;;;;;;18.23;7.93;;;7.00;99.90;;;;;;5100363;28;20509;-52
2023/12/24 21:19:41;;;;;;;15.93;7.15;;;7.00;99.90;;;;;;5100508;28;20395;-51
2023/12/24 21:22:06;;;;;;;13.48;6.65;;;7.10;99.90;;;;;;5096382;28;20558;-50
2023/12/24 21:24:32;;;;;;;14.93;6.97;;;7.20;99.90;;;;;;5097746;28;20039;-52
2023/12/24 21:26:58;;;;;;;23.25;10.75;;;7.10;99.90;;;;;;5099524;28;20031;-56
2023/12/24 21:29:23;;;;;;;15.65;8.10;;;7.10;99.90;;;;;;5098869;28;20044;-50
2023/12/24 21:31:49;;;;;;;19.48;8.77;;;7.00;99.90;;;;;;5100226;28;20032;-48
2023/12/24 21:34:15;;;;;;;18.65;9.68;;;7.00;99.90;;;;;;5099756;28;20031;-49
2023/12/24 21:36:43;;;;;;;18.75;8.68;;;6.90;99.90;;;;;;5099787;28;20114;-50
2023/12/24 21:39:09;;;;;;;16.55;7.68;;;7.00;99.90;;;;;;5100485;28;20375;-53
2023/12/24 21:41:40;;;;;;;13.88;7.40;;;7.00;99.90;;;;;;5100031;28;20036;-50
2023/12/24 21:44:05;;;;;;;12.88;7.63;;;7.00;99.90;;;;;;5098560;28;20115;-53
2023/12/24 21:46:31;;;;;;;16.80;7.70;;;6.90;99.90;;;;;;5099690;28;20587;-48
2023/12/24 21:48:57;;;;;;;21.00;9.25;;;6.90;99.90;;;;;;5099612;28;20036;-49
2023/12/24 21:51:22;;;;;;;15.85;7.18;;;6.90;99.90;;;;;;5099059;28;20060;-52
2023/12/24 21:53:49;;;;;;;14.70;6.63;;;6.90;99.90;;;;;;5099537;28;20032;-47
2023/12/24 21:56:15;;;;;;;13.48;6.75;;;6.90;99.90;;;;;;5099754;28;20020;-49
2023/12/24 21:58:40;;;;;;;12.18;6.40;;;7.00;99.90;;;;;;5098160;28;20512;-48
2023/12/24 22:01:06;;;;;;;14.90;7.82;;;7.00;99.90;;;;;;5099071;28;20059;-51
2023/12/24 22:03:32;;;;;;;12.25;6.57;;;7.00;99.90;;;;;;5098815;28;20458;-50
2023/12/24 22:06:03;;;;;;;17.13;7.90;;;7.00;99.90;;;;;;5099999;28;20042;-49
2023/12/24 22:08:29;;;;;;;16.20;8.30;;;6.90;99.90;;;;;;5100608;28;20515;-48
2023/12/24 22:10:55;;;;;;;13.30;7.18;;;6.90;99.90;;;;;;5089602;28;20028;-47
2023/12/24 22:13:21;;;;;;;18.88;8.98;;;6.90;99.90;;;;;;5086709;28;20549;-49
2023/12/24 22:15:46;;;;;;;11.10;6.35;;;7.00;99.90;;;;;;5078819;28;20086;-50
2023/12/24 22:18:12;;;;;;;19.08;8.70;;;7.10;99.90;;;;;;5066293;28;20097;-46
2023/12/24 22:20:38;;;;;;;18.95;7.93;;;7.00;99.90;;;;;;5077442;28;20036;-47
2023/12/24 22:23:04;;;;;;;13.77;7.32;;;7.00;99.90;;;;;;5084596;28;20479;-52
2023/12/24 22:25:30;;;;;;;14.00;5.85;;;7.00;99.90;;;;;;5086305;28;20179;-48
2023/12/24 22:27:55;;;;;;;13.60;6.63;;;7.10;99.90;;;;;;5085779;28;20439;-50
2023/12/24 22:30:22;;;;;;;11.38;6.28;;;7.10;99.90;;;;;;5086368;28;20039;-48
2023/12/24 22:32:48;;;;;;;13.27;6.20;;;7.10;99.90;;;;;;5086116;28;20051;-48
2023/12/24 22:35:14;;;;;;;11.43;5.40;;;7.10;99.90;;;;;;5085912;28;20032;-48
2023/12/24 22:37:39;;;;;;;10.45;5.65;;;7.10;99.90;;;;;;5085837;28;20020;-49
2023/12/24 22:40:05;;;;;;;11.70;5.70;;;7.10;99.90;;;;;;5085690;28;20157;-50
2023/12/24 22:42:31;;;;;;;12.45;6.10;;;7.10;99.90;;;;;;5084204;28;20028;-50
2023/12/24 22:44:57;;;;;;;11.13;6.13;;;7.10;99.90;;;;;;5085321;28;20035;-50
2023/12/24 22:47:22;;;;;;;9.68;5.63;;;7.10;99.90;;;;;;5085797;28;20024;-52
2023/12/24 22:49:48;;;;;;;15.75;6.30;;;7.10;99.90;;;;;;5084373;28;20589;-49
2023/12/24 22:52:14;;;;;;;16.13;6.60;;;7.10;99.90;;;;;;5084513;28;20076;-49
2023/12/24 22:54:39;;;;;;;13.75;6.10;;;7.10;99.90;;;;;;5084605;28;20032;-48
2023/12/24 22:57:05;;;;;;;14.60;5.45;;;7.10;99.90;;;;;;5084022;28;20073;-49
2023/12/24 22:59:30;;;;;;;11.35;5.10;;;7.10;99.90;;;;;;5084326;28;20040;-50
2023/12/24 23:01:58;;;;;;;12.55;5.10;;;7.10;99.90;;;;;;5085088;28;20016;-47
2023/12/24 23:04:24;;;;;;;12.50;7.00;;;7.10;99.90;;;;;;5085245;28;20032;-47
2023/12/24 23:06:49;;;;;;;14.23;6.45;;;7.10;99.90;;;;;;5085065;28;20036;-47
2023/12/24 23:09:15;;;;;;;14.88;6.80;;;7.10;99.90;;;;;;5084559;28;20028;-51
2023/12/24 23:11:41;;;;;;;13.05;6.15;;;7.10;99.90;;;;;;5084673;28;20033;-50
2023/12/24 23:14:07;;;;;;;15.32;6.32;;;7.10;99.90;;;;;;5084228;28;20491;-48
2023/12/24 23:16:33;;;;;;;11.40;5.63;;;7.20;99.90;;;;;;5084491;28;20070;-51
2023/12/24 23:18:59;;;;;;;12.15;5.63;;;7.20;99.90;;;;;;5082246;28;20093;-50
2023/12/24 23:21:24;;;;;;;12.43;6.03;;;7.20;99.90;;;;;;5083160;28;20032;-50
2023/12/24 23:23:51;;;;;;;12.25;5.90;;;7.20;99.90;;;;;;5084098;28;20027;-49
2023/12/24 23:26:17;;;;;;;9.77;5.93;;;7.20;99.90;;;;;;5084242;28;20024;-50
2023/12/24 23:28:43;;;;;;;13.77;5.80;;;7.20;99.90;;;;;;5084134;28;20450;-49
2023/12/24 23:31:09;;;;;;;12.93;6.80;;;7.20;99.90;;;;;;5084337;28;20016;-49
2023/12/24 23:33:34;;;;;;;12.32;6.18;;;7.20;99.90;;;;;;5084025;28;20024;-52
2023/12/24 23:36:00;;;;;;;11.30;5.90;;;7.30;99.90;;;;;;5084113;28;20844;-50
2023/12/24 23:38:26;;;;;;;11.45;5.53;;;7.30;99.90;;;;;;5084057;28;20028;-54
2023/12/24 23:40:52;;;;;;;9.65;4.90;;;7.30;99.90;;;;;;5084570;28;20461;-48
2023/12/24 23:43:17;;;;;;;9.63;5.28;;;7.30;99.90;;;;;;5084996;28;20085;-50
2023/12/24 23:45:43;;;;;;;9.80;4.85;;;7.30;99.90;;;;;;5084592;28;20034;-52
